createdAt,value
2019-02-24T00:02:11.033Z,12.32
2019-02-24T00:07:18.830Z,12.01
2019-02-24T00:12:27.685Z,13.12
2019-02-24T00:17:35.881Z,13.66
2019-02-24T00:22:43.708Z,13.11
2019-02-24T00:27:51.462Z,13.81
2019-02-24T00:33:01.029Z,13.74
2019-02-24T00:38:08.909Z,13.16
2019-02-24T00:43:16.658Z,12.78
2019-02-24T00:48:24.297Z,12.89
2019-02-24T00:53:32.106Z,13.37
2019-02-24T00:58:39.841Z,14.55
2019-02-24T01:03:47.538Z,13.70
2019-02-24T01:08:55.161Z,14.14
2019-02-24T01:14:03.781Z,16.19
2019-02-24T01:19:11.553Z,15.00
2019-02-24T01:24:19.356Z,15.25
2019-02-24T01:29:27.029Z,13.97
2019-02-24T01:34:35.797Z,13.25
2019-02-24T01:39:43.390Z,14.80
2019-02-24T01:44:51.161Z,13.77
2019-02-24T01:49:58.861Z,14.49
2019-02-24T01:55:06.554Z,14.75
2019-02-24T02:00:14.130Z,13.63
2019-02-24T02:05:21.767Z,13.95
2019-02-24T02:10:29.449Z,14.21
2019-02-24T02:15:37.877Z,13.56
2019-02-24T02:20:45.545Z,13.53
2019-02-24T02:25:53.213Z,14.41
2019-02-24T02:31:00.886Z,13.77
2019-02-24T02:36:08.613Z,13.37
2019-02-24T02:41:16.542Z,14.20
2019-02-24T02:46:24.161Z,14.62
2019-02-24T02:51:32.904Z,15.40
2019-02-24T02:56:40.815Z,14.76
2019-02-24T03:01:48.556Z,14.01
2019-02-24T03:06:56.430Z,14.18
2019-02-24T03:12:04.048Z,14.27
2019-02-24T03:17:11.764Z,13.10
2019-02-24T03:22:19.394Z,13.75
2019-02-24T03:27:27.098Z,13.45
2019-02-24T03:32:34.762Z,12.31
2019-02-24T03:37:42.562Z,14.31
2019-02-24T03:42:50.366Z,13.88
2019-02-24T03:47:58.080Z,13.05
2019-02-24T03:53:05.791Z,14.63
2019-02-24T03:58:13.681Z,14.15
2019-02-24T04:03:21.393Z,14.10
2019-02-24T04:08:29.102Z,13.63
2019-02-24T04:13:36.786Z,14.79
2019-02-24T04:18:44.382Z,14.30
2019-02-24T04:23:52.132Z,14.52
2019-02-24T04:28:59.857Z,14.21
2019-02-24T04:34:07.541Z,14.13
2019-02-24T04:39:15.301Z,14.73
2019-02-24T04:44:22.901Z,15.12
2019-02-24T04:49:30.878Z,13.84
2019-02-24T04:54:38.594Z,14.16
2019-02-24T04:59:46.288Z,14.14
2019-02-24T05:04:53.914Z,15.06
2019-02-24T05:10:01.719Z,14.61
2019-02-24T05:15:09.409Z,13.40
2019-02-24T05:20:17.519Z,14.31
2019-02-24T05:25:25.217Z,14.22
2019-02-24T05:30:32.824Z,15.52
2019-02-24T05:35:40.530Z,15.18
2019-02-24T05:40:48.217Z,16.02
2019-02-24T05:45:55.820Z,15.26
2019-02-24T05:51:03.557Z,16.68
2019-02-24T05:56:12.294Z,15.79
2019-02-24T06:01:20.101Z,15.66
2019-02-24T06:06:27.674Z,15.59
2019-02-24T06:11:35.515Z,15.81
2019-02-24T06:16:44.230Z,14.95
2019-02-24T06:21:52.773Z,15.35
2019-02-24T06:27:00.569Z,15.20
2019-02-24T06:32:08.303Z,14.82
2019-02-24T06:37:15.900Z,15.58
2019-02-24T06:42:23.566Z,15.37
2019-02-24T06:47:32.181Z,16.08
2019-02-24T06:52:39.854Z,14.81
2019-02-24T06:57:49.457Z,18.03
2019-02-24T07:02:57.221Z,15.22
2019-02-24T07:08:04.838Z,15.90
2019-02-24T07:13:12.704Z,16.38
2019-02-24T07:18:20.574Z,15.89
2019-02-24T07:23:28.154Z,15.80
2019-02-24T07:28:35.757Z,14.61
2019-02-24T07:33:43.453Z,16.94
2019-02-24T07:38:51.087Z,17.12
2019-02-24T07:43:58.950Z,15.84
2019-02-24T07:49:06.594Z,16.14
2019-02-24T07:54:14.237Z,17.87
2019-02-24T07:59:21.862Z,15.47
2019-02-24T08:04:29.732Z,17.93
2019-02-24T08:09:37.370Z,19.26
2019-02-24T08:14:45.069Z,17.64
2019-02-24T08:19:52.686Z,18.51
2019-02-24T08:25:00.341Z,17.58
2019-02-24T08:30:07.957Z,16.33
2019-02-24T08:35:15.603Z,16.71
2019-02-24T08:40:23.185Z,16.98
2019-02-24T08:45:31.075Z,17.39
2019-02-24T08:50:38.734Z,15.52
2019-02-24T08:55:46.576Z,15.12
2019-02-24T09:01:07.602Z,16.31
2019-02-24T09:05:55.277Z,15.37
2019-02-24T09:11:02.861Z,14.26
2019-02-24T09:16:10.802Z,13.47
2019-02-24T09:21:18.884Z,13.37
2019-02-24T09:26:27.537Z,13.43
2019-02-24T09:31:35.195Z,13.03
2019-02-24T09:36:43.007Z,12.56
2019-02-24T09:41:50.701Z,12.45
2019-02-24T09:46:58.925Z,12.52
2019-02-24T09:52:06.524Z,12.01
2019-02-24T09:57:14.492Z,11.87
2019-02-24T10:02:22.114Z,10.99
2019-02-24T10:07:30.737Z,11.03
2019-02-24T10:12:38.486Z,10.51
2019-02-24T10:17:46.344Z,10.55
2019-02-24T10:22:53.925Z,11.56
2019-02-24T10:28:01.780Z,10.61
2019-02-24T10:33:09.453Z,11.31
2019-02-24T10:38:17.245Z,9.72
2019-02-24T10:43:25.055Z,12.35
2019-02-24T10:48:32.773Z,13.40
2019-02-24T10:53:40.450Z,12.65
2019-02-24T10:58:48.279Z,14.91
2019-02-24T11:03:56.292Z,14.15
2019-02-24T11:09:03.982Z,12.84
2019-02-24T11:14:11.701Z,13.79
2019-02-24T11:19:20.193Z,11.93
2019-02-24T11:24:27.813Z,12.82
2019-02-24T11:29:35.609Z,14.33
2019-02-24T11:34:43.244Z,15.33
2019-02-24T11:39:50.976Z,15.29
2019-02-24T11:44:58.664Z,14.89
2019-02-24T11:50:06.427Z,14.52
2019-02-24T11:55:14.059Z,12.80
2019-02-24T12:00:21.818Z,11.78
2019-02-24T12:05:29.637Z,11.54
2019-02-24T12:10:37.485Z,13.16
2019-02-24T12:15:45.365Z,12.79
2019-02-24T12:20:53.118Z,12.38
2019-02-24T12:26:00.743Z,11.44
2019-02-24T12:31:08.421Z,13.65
2019-02-24T12:36:16.034Z,12.45
2019-02-24T12:41:23.728Z,14.22
2019-02-24T12:46:31.338Z,10.95
2019-02-24T12:51:39.005Z,11.36
2019-02-24T12:56:46.586Z,10.09
2019-02-24T13:01:54.349Z,8.57
2019-02-24T13:07:01.962Z,9.42
2019-02-24T13:12:09.730Z,9.35
2019-02-24T13:17:17.603Z,9.06
2019-02-24T13:22:25.224Z,9.06
2019-02-24T13:27:32.845Z,10.48
2019-02-24T13:32:40.537Z,9.07
2019-02-24T13:37:48.122Z,9.51
2019-02-24T13:42:55.813Z,9.35
2019-02-24T13:48:03.399Z,10.04
2019-02-24T13:53:11.068Z,9.91
2019-02-24T13:58:18.717Z,9.78
2019-02-24T14:03:26.314Z,7.11
2019-02-24T14:08:33.906Z,7.35
2019-02-24T14:13:41.558Z,7.25
2019-02-24T14:18:50.051Z,6.69
2019-02-24T14:23:56.560Z,6.42
2019-02-24T14:29:04.229Z,8.56
2019-02-24T14:34:11.946Z,6.52
2019-02-24T14:39:19.525Z,7.06
2019-02-24T14:44:27.264Z,6.48
2019-02-24T14:49:34.961Z,6.74
2019-02-24T14:54:42.634Z,7.49
2019-02-24T14:59:50.258Z,7.00
2019-02-24T15:04:58.122Z,7.32
2019-02-24T15:10:05.844Z,8.07
2019-02-24T15:15:13.678Z,8.05
2019-02-24T15:20:21.336Z,9.44
2019-02-24T15:25:29.465Z,8.60
2019-02-24T15:30:37.087Z,8.04
2019-02-24T15:35:44.924Z,8.04
2019-02-24T15:40:52.632Z,9.17
2019-02-24T15:46:00.282Z,7.24
2019-02-24T15:51:07.989Z,7.25
2019-02-24T15:56:15.701Z,8.33
2019-02-24T16:01:23.511Z,10.46
2019-02-24T16:06:37.231Z,8.99
2019-02-24T16:11:40.252Z,9.71
2019-02-24T16:16:47.869Z,8.11
2019-02-24T16:21:56.261Z,8.62
2019-02-24T16:27:05.135Z,9.25
2019-02-24T16:32:11.423Z,8.78
2019-02-24T16:37:19.221Z,8.95
2019-02-24T16:42:28.364Z,12.09
2019-02-24T16:47:36.029Z,10.71
2019-02-24T16:52:43.846Z,9.41
2019-02-24T16:57:51.468Z,6.80
2019-02-24T17:02:59.314Z,6.67
2019-02-24T17:08:07.014Z,6.99
2019-02-24T17:13:14.721Z,5.81
2019-02-24T17:18:22.642Z,8.98
2019-02-24T17:23:30.427Z,6.82
2019-02-24T17:28:38.154Z,8.46
2019-02-24T17:33:46.063Z,5.32
2019-02-24T17:38:53.705Z,6.62
2019-02-24T17:44:01.509Z,5.59
2019-02-24T17:49:09.426Z,7.81
2019-02-24T17:54:17.105Z,7.70
2019-02-24T17:59:24.844Z,8.33
2019-02-24T18:04:32.722Z,10.70
2019-02-24T18:09:40.313Z,11.63
2019-02-24T18:14:48.088Z,13.04
2019-02-24T18:19:55.905Z,15.55
2019-02-24T18:25:03.856Z,21.37
2019-02-24T18:30:11.564Z,24.29
2019-02-24T18:35:20.677Z,24.77
2019-02-24T18:40:28.314Z,19.18
2019-02-24T18:45:36.085Z,18.40
2019-02-24T18:50:43.757Z,16.83
2019-02-24T18:55:51.611Z,19.02
2019-02-24T19:00:59.302Z,16.96
2019-02-24T19:06:07.054Z,18.16
2019-02-24T19:11:14.721Z,17.48
2019-02-24T19:16:22.531Z,17.36
2019-02-24T19:21:30.223Z,20.10
2019-02-24T19:26:38.093Z,20.97
2019-02-24T19:31:45.917Z,20.60
2019-02-24T19:36:53.746Z,22.85
2019-02-24T19:42:01.856Z,25.53
2019-02-24T19:47:10.642Z,23.98
2019-02-24T19:52:18.728Z,24.32
2019-02-24T19:57:26.602Z,22.49
2019-02-24T20:02:34.603Z,22.49
2019-02-24T20:07:42.561Z,21.18
2019-02-24T20:12:50.269Z,22.27
2019-02-24T20:17:59.347Z,25.32
2019-02-24T20:23:07.301Z,25.45
2019-02-24T20:28:15.018Z,26.51
2019-02-24T20:33:22.805Z,24.85
2019-02-24T20:38:30.642Z,26.43
2019-02-24T20:43:38.534Z,27.65
2019-02-24T20:48:46.392Z,27.35
2019-02-24T20:53:54.041Z,27.90
2019-02-24T20:59:01.882Z,27.89
2019-02-24T21:04:09.581Z,27.86
2019-02-24T21:09:17.401Z,28.02
2019-02-24T21:14:25.089Z,26.16
2019-02-24T21:19:32.874Z,28.47
2019-02-24T21:24:40.534Z,27.96
2019-02-24T21:29:48.350Z,27.67
2019-02-24T21:34:56.086Z,29.49
2019-02-24T21:40:03.818Z,29.11
2019-02-24T21:45:11.536Z,27.29
2019-02-24T21:50:19.192Z,27.72
2019-02-24T21:55:26.966Z,25.71
2019-02-24T22:00:34.710Z,25.91
2019-02-24T22:05:42.306Z,27.35
2019-02-24T22:10:50.226Z,26.84
2019-02-24T22:15:57.922Z,27.43
2019-02-24T22:21:05.876Z,27.31
2019-02-24T22:26:13.676Z,27.24
2019-02-24T22:31:21.562Z,29.28
2019-02-24T22:36:29.249Z,29.35
2019-02-24T22:41:37.110Z,30.81
2019-02-24T22:46:44.818Z,30.37
2019-02-24T22:51:52.598Z,31.78
2019-02-24T22:57:00.223Z,31.29
2019-02-24T23:02:07.989Z,30.65
2019-02-24T23:07:15.781Z,30.62
2019-02-24T23:12:23.506Z,27.37
2019-02-24T23:17:31.255Z,26.73
2019-02-24T23:22:39.077Z,25.42
2019-02-24T23:27:46.831Z,23.17
2019-02-24T23:32:54.502Z,21.68
2019-02-24T23:38:02.151Z,23.06
2019-02-24T23:43:09.953Z,22.10
2019-02-24T23:48:17.570Z,21.62
2019-02-24T23:53:25.377Z,19.27
2019-02-24T23:58:33.074Z,20.72
